Time;durP1;ratioP1;P1;durP2;ratioP2;P2;SDS_P1;SDS_P2;PMS_P1;PMS_P2;Temp;Humidity;BMP_temperature;BMP_pressure;BME280_temperature;BME280_humidity;BME280_pressure;Samples;Min_cycle;Max_cycle;Signal;HPM_P1;HPM_P2
2021/06/09 00:00:59;;;;;;;30.63;20.37;;;16.50;84.40;;;;;;5008788;28;20230;-72
2021/06/09 00:03:24;;;;;;;31.23;19.33;;;16.50;84.50;;;;;;5013458;28;20660;-71
2021/06/09 00:05:50;;;;;;;30.20;19.73;;;16.50;85.10;;;;;;5013338;28;20199;-72
2021/06/09 00:08:17;;;;;;;27.33;19.20;;;16.40;84.70;;;;;;4991886;28;20674;-71
2021/06/09 00:10:44;;;;;;;25.67;19.30;;;16.30;85.10;;;;;;4994992;28;20411;-72
2021/06/09 00:13:10;;;;;;;25.10;19.50;;;16.30;86.40;;;;;;4996310;28;20821;-72
2021/06/09 00:15:36;;;;;;;27.70;20.30;;;16.20;86.40;;;;;;4993479;28;20416;-72
2021/06/09 00:18:02;;;;;;;31.73;20.73;;;16.20;86.60;;;;;;4993465;28;20787;-73
2021/06/09 00:20:29;;;;;;;26.40;19.03;;;16.30;86.30;;;;;;4993423;28;20419;-71
2021/06/09 00:22:55;;;;;;;36.93;20.67;;;16.30;87.00;;;;;;4976009;28;20411;-73
2021/06/09 00:28:45;;;;;;;38.73;21.27;;;16.10;87.20;;;;;;5013762;28;20463;-72
2021/06/09 00:31:10;;;;;;;27.63;20.93;;;16.00;88.30;;;;;;5013394;28;20514;-73
2021/06/09 00:33:36;;;;;;;29.93;18.97;;;16.00;89.20;;;;;;5013130;28;20460;-72
2021/06/09 00:36:02;;;;;;;30.17;20.50;;;15.90;89.90;;;;;;5013197;28;20177;-73
2021/06/09 00:38:29;;;;;;;31.33;22.00;;;15.90;91.20;;;;;;5010782;28;20199;-72
2021/06/09 00:40:59;;;;;;;30.30;21.53;;;15.90;90.60;;;;;;5012887;28;20411;-73
2021/06/09 00:43:32;;;;;;;27.33;21.10;;;15.80;91.10;;;;;;5012437;28;20410;-71
2021/06/09 00:46:06;;;;;;;36.03;21.63;;;15.90;91.30;;;;;;4996038;28;20392;-72
2021/06/09 00:48:34;;;;;;;32.00;22.30;;;15.80;91.30;;;;;;5011568;28;20481;-72
2021/06/09 00:51:02;;;;;;;34.27;23.77;;;15.80;91.20;;;;;;5012365;28;20545;-72
2021/06/09 00:53:29;;;;;;;41.33;26.03;;;15.70;91.60;;;;;;5010983;28;20823;-72
2021/06/09 00:56:15;;;;;;;35.57;25.60;;;15.70;92.00;;;;;;5012504;28;20425;-71
2021/06/09 00:58:43;;;;;;;42.60;24.87;;;15.70;92.00;;;;;;5012009;28;20446;-71
2021/06/09 01:01:10;;;;;;;42.07;26.20;;;15.60;92.80;;;;;;5012306;28;20899;-70
2021/06/09 01:03:36;;;;;;;40.13;26.47;;;15.80;92.30;;;;;;5011986;28;20496;-71
2021/06/09 01:06:04;;;;;;;40.17;26.50;;;15.80;92.30;;;;;;5012153;28;20762;-72
2021/06/09 01:08:33;;;;;;;40.97;27.80;;;15.70;92.60;;;;;;5003457;28;20425;-71
2021/06/09 01:10:59;;;;;;;47.60;28.10;;;15.80;92.30;;;;;;5012005;28;20491;-71
2021/06/09 01:13:26;;;;;;;38.53;27.30;;;15.80;91.80;;;;;;5011789;28;20422;-71
2021/06/09 01:15:52;;;;;;;41.80;26.87;;;15.80;91.40;;;;;;5012042;28;20426;-73
2021/06/09 01:18:19;;;;;;;38.93;26.30;;;15.70;91.90;;;;;;5011749;28;20881;-71
2021/06/09 01:20:46;;;;;;;39.60;26.63;;;15.60;92.90;;;;;;5012264;28;20399;-71
2021/06/09 01:23:11;;;;;;;38.20;27.20;;;15.70;93.00;;;;;;5011880;28;20417;-71
2021/06/09 01:25:37;;;;;;;43.03;30.53;;;15.60;93.20;;;;;;5010838;28;20746;-72
2021/06/09 01:28:04;;;;;;;44.50;31.00;;;15.50;93.50;;;;;;5000918;28;20406;-72
2021/06/09 01:30:30;;;;;;;43.53;31.65;;;15.60;94.10;;;;;;4991076;28;20417;-70
2021/06/09 01:32:56;;;;;;;44.13;31.50;;;15.70;92.10;;;;;;4991068;28;20407;-71
2021/06/09 01:35:22;;;;;;;46.85;33.13;;;15.60;92.90;;;;;;4974161;28;20402;-71
2021/06/09 01:37:49;;;;;;;45.33;33.42;;;15.60;93.30;;;;;;5000169;28;20383;-71
2021/06/09 01:40:18;;;;;;;47.13;34.42;;;15.50;94.20;;;;;;4991018;28;20438;-72
2021/06/09 01:42:45;;;;;;;48.92;34.38;;;15.50;93.80;;;;;;4990849;28;20390;-71
2021/06/09 01:45:14;;;;;;;48.50;34.97;;;15.50;94.80;;;;;;4990925;28;20397;-71
2021/06/09 01:47:40;;;;;;;47.22;34.60;;;15.50;93.70;;;;;;5010445;28;20487;-71
2021/06/09 01:50:09;;;;;;;49.65;35.10;;;15.40;94.50;;;;;;5014327;28;20392;-71
2021/06/09 01:52:35;;;;;;;46.78;34.85;;;15.30;95.00;;;;;;5014079;28;20412;-71
2021/06/09 01:55:03;;;;;;;48.33;34.60;;;15.30;95.60;;;;;;5014229;28;20372;-69
2021/06/09 01:57:29;;;;;;;55.50;36.15;;;15.20;96.20;;;;;;5013454;28;20471;-71
2021/06/09 01:59:55;;;;;;;47.30;34.40;;;15.20;96.50;;;;;;5014380;28;20886;-71
2021/06/09 02:02:20;;;;;;;49.27;35.90;;;15.20;96.90;;;;;;5014038;28;20388;-71
2021/06/09 02:04:46;;;;;;;51.17;35.45;;;15.20;97.10;;;;;;5012583;28;20400;-72
2021/06/09 02:07:11;;;;;;;50.90;36.50;;;15.20;97.00;;;;;;5014155;28;20395;-72
2021/06/09 02:09:38;;;;;;;54.15;37.05;;;15.10;97.20;;;;;;4999538;28;20890;-73
2021/06/09 02:12:06;;;;;;;52.88;37.67;;;15.10;97.20;;;;;;4994565;28;20407;-72
2021/06/09 02:14:33;;;;;;;56.10;38.85;;;15.10;97.30;;;;;;4994170;28;20383;-72
2021/06/09 02:16:59;;;;;;;58.10;38.97;;;15.10;97.50;;;;;;5014006;28;20392;-71
2021/06/09 02:19:25;;;;;;;56.83;38.80;;;15.10;97.70;;;;;;5014200;28;20464;-71
2021/06/09 02:21:52;;;;;;;57.63;38.83;;;15.10;97.70;;;;;;5014662;28;20401;-72
2021/06/09 02:24:18;;;;;;;62.67;40.13;;;15.10;97.90;;;;;;5014071;28;20428;-72
2021/06/09 02:26:44;;;;;;;64.13;41.38;;;15.10;98.20;;;;;;4997851;28;20469;-73
2021/06/09 02:29:12;;;;;;;57.80;40.42;;;15.10;98.30;;;;;;4994785;28;20485;-73
2021/06/09 02:31:39;;;;;;;59.47;42.13;;;15.00;98.30;;;;;;4994649;28;20416;-72
2021/06/09 02:34:16;;;;;;;63.53;42.03;;;14.90;98.60;;;;;;4994091;28;20879;-71
2021/06/09 02:36:42;;;;;;;60.67;41.20;;;14.90;98.70;;;;;;5008124;28;20866;-71
2021/06/09 02:39:08;;;;;;;61.00;41.90;;;14.90;99.10;;;;;;4993938;28;20387;-70
2021/06/09 02:41:35;;;;;;;60.33;41.22;;;14.90;99.20;;;;;;4976212;28;20438;-71
2021/06/09 02:44:00;;;;;;;58.67;39.92;;;14.90;99.30;;;;;;4993646;28;20419;-71
2021/06/09 02:46:48;;;;;;;58.05;41.47;;;14.90;99.40;;;;;;5007834;28;20427;-70
2021/06/09 02:49:17;;;;;;;57.72;40.17;;;14.80;99.30;;;;;;5013688;28;20979;-72
2021/06/09 02:51:50;;;;;;;55.80;39.40;;;14.80;99.30;;;;;;5013354;28;20824;-71
2021/06/09 02:54:38;;;;;;;61.07;41.33;;;14.80;99.40;;;;;;5012041;28;20474;-74
2021/06/09 02:57:29;;;;;;;63.45;41.28;;;14.90;99.70;;;;;;5016635;28;20410;-74
2021/06/09 03:00:17;;;;;;;62.75;41.63;;;14.90;99.70;;;;;;5018845;28;20438;-74
2021/06/09 03:03:00;;;;;;;64.93;41.10;;;14.90;99.90;;;;;;5018089;28;20404;-72
2021/06/09 03:05:45;;;;;;;59.05;40.35;;;14.90;99.40;;;;;;4995533;28;20981;-74
2021/06/09 03:08:32;;;;;;;59.47;40.90;;;14.90;99.50;;;;;;5013783;28;20426;-73
2021/06/09 03:11:27;;;;;;;58.28;39.22;;;14.90;99.60;;;;;;4980786;28;20481;-73
2021/06/09 03:14:03;;;;;;;63.30;43.42;;;14.80;99.80;;;;;;5014754;28;20716;-74
2021/06/09 03:16:48;;;;;;;64.35;43.22;;;14.80;99.90;;;;;;5001301;28;20409;-73
2021/06/09 03:19:20;;;;;;;61.42;41.40;;;14.80;99.90;;;;;;4994362;28;20398;-73
2021/06/09 03:21:52;;;;;;;62.17;41.30;;;14.80;99.90;;;;;;4997030;28;20793;-74
2021/06/09 03:24:35;;;;;;;61.70;42.47;;;14.80;99.90;;;;;;4998677;28;20875;-72
2021/06/09 03:27:29;;;;;;;60.28;41.97;;;14.90;99.90;;;;;;5017034;28;20551;-73
2021/06/09 03:30:00;;;;;;;65.45;42.35;;;14.90;99.90;;;;;;5007166;28;20400;-73
2021/06/09 03:32:34;;;;;;;62.28;42.72;;;14.90;99.90;;;;;;5013417;28;20520;-73
2021/06/09 03:35:01;;;;;;;67.90;43.20;;;15.00;99.90;;;;;;5011331;28;20432;-72
2021/06/09 03:37:31;;;;;;;64.70;41.33;;;14.90;99.70;;;;;;5002686;28;20403;-74
2021/06/09 03:39:58;;;;;;;62.72;43.13;;;15.00;99.90;;;;;;5013547;28;20384;-73
2021/06/09 03:42:31;;;;;;;57.37;39.80;;;15.00;99.30;;;;;;5014810;28;20471;-73
2021/06/09 03:44:59;;;;;;;64.50;41.15;;;15.00;99.10;;;;;;5013543;28;20377;-74
2021/06/09 03:47:26;;;;;;;63.80;41.30;;;14.90;99.30;;;;;;5014333;28;20486;-74
2021/06/09 03:49:54;;;;;;;67.28;42.00;;;14.90;99.50;;;;;;5012400;28;20423;-72
2021/06/09 03:52:21;;;;;;;64.40;42.90;;;14.90;99.10;;;;;;5011037;28;20412;-74
2021/06/09 03:55:08;;;;;;;67.75;43.75;;;14.90;99.20;;;;;;5012013;28;20445;-74
2021/06/09 03:57:36;;;;;;;62.30;42.85;;;15.00;99.00;;;;;;4992896;28;20398;-72
2021/06/09 04:00:05;;;;;;;64.18;43.83;;;14.90;98.90;;;;;;4992572;28;20390;-72
2021/06/09 04:02:32;;;;;;;66.53;44.13;;;14.90;99.00;;;;;;4992155;28;20394;-74
2021/06/09 04:04:58;;;;;;;65.47;44.83;;;14.90;99.20;;;;;;4993041;28;20819;-74
2021/06/09 04:07:27;;;;;;;67.63;45.15;;;15.00;98.90;;;;;;5011863;28;20723;-74
2021/06/09 04:09:55;;;;;;;67.15;45.25;;;14.90;99.00;;;;;;5009574;28;20401;-73
2021/06/09 04:12:22;;;;;;;72.38;44.95;;;14.90;99.20;;;;;;5011355;28;20483;-73
2021/06/09 04:14:51;;;;;;;77.40;46.92;;;14.90;99.40;;;;;;5011576;28;20443;-74
2021/06/09 04:17:25;;;;;;;71.47;46.20;;;15.00;99.30;;;;;;4992423;28;20435;-74
2021/06/09 04:19:53;;;;;;;68.05;44.58;;;15.00;99.10;;;;;;4990874;28;20387;-74
2021/06/09 04:22:19;;;;;;;69.57;45.00;;;15.10;98.90;;;;;;4992084;28;20901;-74
2021/06/09 04:24:45;;;;;;;71.00;45.80;;;15.10;98.60;;;;;;4991899;28;20426;-75
2021/06/09 04:27:22;;;;;;;68.68;44.75;;;15.10;98.60;;;;;;4992064;28;20482;-73
2021/06/09 04:29:49;;;;;;;70.57;44.97;;;15.30;98.40;;;;;;4992051;28;20510;-73
2021/06/09 04:32:15;;;;;;;65.57;44.27;;;15.40;97.40;;;;;;4991897;28;20848;-73
2021/06/09 04:34:49;;;;;;;71.60;45.90;;;15.50;97.10;;;;;;4991853;28;20433;-74
2021/06/09 04:37:18;;;;;;;62.73;42.63;;;15.60;96.70;;;;;;5004166;28;20391;-74
2021/06/09 04:39:44;;;;;;;65.18;43.85;;;15.70;96.40;;;;;;4992102;28;20410;-74
2021/06/09 04:42:10;;;;;;;67.32;42.88;;;15.80;94.90;;;;;;4991982;28;20402;-72
2021/06/09 04:44:38;;;;;;;66.20;41.33;;;15.90;95.70;;;;;;4991726;28;20474;-72
2021/06/09 04:47:05;;;;;;;67.95;43.22;;;16.00;93.60;;;;;;5008346;28;20407;-72
2021/06/09 04:49:38;;;;;;;63.90;43.20;;;16.10;92.50;;;;;;5011169;28;20735;-73
2021/06/09 04:52:04;;;;;;;65.13;43.72;;;16.20;92.40;;;;;;5006710;28;20452;-74
2021/06/09 04:54:30;;;;;;;72.03;44.13;;;16.30;91.50;;;;;;5010970;28;20396;-72
2021/06/09 04:56:56;;;;;;;72.90;44.83;;;16.40;90.90;;;;;;4995936;28;20398;-72
2021/06/09 04:59:22;;;;;;;63.03;42.47;;;16.50;89.70;;;;;;4991708;28;20386;-71
2021/06/09 05:01:48;;;;;;;69.60;45.80;;;16.70;87.90;;;;;;4992182;28;20394;-71
2021/06/09 05:04:14;;;;;;;59.07;42.37;;;16.80;86.50;;;;;;4991440;28;20791;-71
2021/06/09 05:06:39;;;;;;;62.60;43.50;;;16.90;86.00;;;;;;4991516;28;20391;-72
2021/06/09 05:09:07;;;;;;;64.73;43.57;;;17.00;85.00;;;;;;5003013;28;20412;-72
2021/06/09 05:11:40;;;;;;;62.08;41.33;;;17.10;83.00;;;;;;5009618;28;20462;-71
2021/06/09 05:14:13;;;;;;;64.00;43.22;;;17.20;81.90;;;;;;4977710;28;20391;-72
2021/06/09 05:16:42;;;;;;;62.45;41.38;;;17.30;78.30;;;;;;4994017;28;20387;-72
2021/06/09 05:19:09;;;;;;;61.53;42.20;;;17.30;77.60;;;;;;4992328;28;20894;-73
2021/06/09 05:21:38;;;;;;;63.53;42.00;;;17.40;77.90;;;;;;4992276;28;20430;-72
2021/06/09 05:24:05;;;;;;;59.78;41.55;;;17.50;77.60;;;;;;4994731;28;20386;-72
2021/06/09 05:26:32;;;;;;;63.40;42.33;;;17.50;76.10;;;;;;4995556;28;20795;-73
2021/06/09 05:29:08;;;;;;;58.20;40.28;;;17.60;76.40;;;;;;4994116;28;20505;-71
2021/06/09 05:31:39;;;;;;;58.33;40.17;;;17.70;75.70;;;;;;4995410;28;20445;-72
2021/06/09 05:34:06;;;;;;;55.95;39.00;;;17.80;74.20;;;;;;5000991;28;20479;-73
2021/06/09 05:36:32;;;;;;;62.08;39.80;;;17.90;73.60;;;;;;4999329;28;20389;-72
2021/06/09 05:38:58;;;;;;;59.42;39.15;;;18.00;71.50;;;;;;4998527;28;20440;-71
2021/06/09 05:41:26;;;;;;;59.40;40.70;;;18.10;70.20;;;;;;5011594;28;20396;-71
2021/06/09 05:43:52;;;;;;;66.10;40.13;;;18.10;69.70;;;;;;5017324;28;20433;-74
2021/06/09 05:46:19;;;;;;;55.70;39.30;;;18.20;68.70;;;;;;5017118;28;20485;-72
2021/06/09 05:48:46;;;;;;;58.53;40.00;;;18.20;68.50;;;;;;5016094;28;20400;-72
2021/06/09 05:51:14;;;;;;;61.20;40.53;;;18.30;68.30;;;;;;5014683;28;20439;-72
2021/06/09 05:53:40;;;;;;;60.00;39.70;;;18.30;68.10;;;;;;4997386;28;20460;-71
2021/06/09 05:56:06;;;;;;;60.50;37.40;;;18.40;67.50;;;;;;5015348;28;20381;-72
2021/06/09 05:58:32;;;;;;;59.03;38.73;;;18.60;67.10;;;;;;5014235;28;20435;-72
2021/06/09 06:01:01;;;;;;;60.88;39.08;;;18.60;65.80;;;;;;5014969;28;20392;-72
2021/06/09 06:03:27;;;;;;;54.90;38.30;;;18.70;65.20;;;;;;5014665;28;20544;-72
2021/06/09 06:06:01;;;;;;;55.05;37.80;;;18.80;64.80;;;;;;5013523;28;20749;-72
2021/06/09 06:08:29;;;;;;;53.40;37.47;;;18.80;64.60;;;;;;5013446;28;20385;-72
2021/06/09 06:11:00;;;;;;;53.58;37.60;;;19.10;63.10;;;;;;5007361;28;20392;-72
2021/06/09 06:13:26;;;;;;;55.38;37.92;;;19.30;61.30;;;;;;5013841;28;20388;-73
2021/06/09 06:15:56;;;;;;;54.27;39.00;;;19.30;61.10;;;;;;5013880;28;20396;-71
2021/06/09 06:18:35;;;;;;;55.03;37.90;;;19.30;60.80;;;;;;5013487;28;20381;-71
2021/06/09 06:21:01;;;;;;;50.57;36.70;;;19.30;60.60;;;;;;5013559;28;20427;-72
2021/06/09 06:23:27;;;;;;;56.95;38.50;;;19.40;60.60;;;;;;5012975;28;20928;-72
2021/06/09 06:25:56;;;;;;;52.30;38.00;;;19.50;59.40;;;;;;5013837;28;20468;-71
2021/06/09 06:28:23;;;;;;;58.25;38.90;;;19.60;60.00;;;;;;5013704;28;20900;-72
2021/06/09 06:30:50;;;;;;;62.60;40.28;;;19.60;58.30;;;;;;5005191;28;20434;-72
2021/06/09 06:33:16;;;;;;;56.85;38.55;;;19.70;58.60;;;;;;4993875;28;20748;-72
2021/06/09 06:35:43;;;;;;;69.30;40.40;;;19.80;57.80;;;;;;4994017;28;20428;-72
2021/06/09 06:38:09;;;;;;;72.93;40.70;;;19.90;57.20;;;;;;5005648;28;20385;-72
2021/06/09 06:40:36;;;;;;;62.28;38.45;;;20.00;57.10;;;;;;5013052;28;20389;-73
2021/06/09 06:43:02;;;;;;;55.20;38.90;;;20.30;55.20;;;;;;5012842;28;20864;-72
2021/06/09 06:45:28;;;;;;;58.85;37.65;;;20.30;53.40;;;;;;5012918;28;20893;-72
2021/06/09 06:47:54;;;;;;;63.28;39.38;;;20.20;53.50;;;;;;5012378;28;20409;-72
2021/06/09 06:50:24;;;;;;;53.10;38.10;;;20.30;54.00;;;;;;5011845;28;20404;-71
2021/06/09 06:52:51;;;;;;;58.05;40.20;;;20.40;53.40;;;;;;5012721;28;20409;-71
2021/06/09 06:55:18;;;;;;;56.17;39.17;;;20.50;52.60;;;;;;5012582;28;20381;-71
2021/06/09 06:57:44;;;;;;;57.83;40.53;;;20.50;52.10;;;;;;5012500;28;20381;-71
2021/06/09 07:00:16;;;;;;;59.85;39.90;;;20.70;51.60;;;;;;5012336;28;20941;-71
2021/06/09 07:02:46;;;;;;;54.33;39.90;;;20.90;50.30;;;;;;5012471;28;20401;-72
2021/06/09 07:05:13;;;;;;;55.15;39.22;;;20.90;49.60;;;;;;5012462;28;20405;-72
2021/06/09 07:07:41;;;;;;;54.22;39.80;;;21.00;49.10;;;;;;4996458;28;20469;-72
2021/06/09 07:10:08;;;;;;;52.30;37.45;;;21.10;48.70;;;;;;4993926;28;20390;-71
2021/06/09 07:12:35;;;;;;;52.65;37.53;;;21.40;47.10;;;;;;4994416;28;20685;-71
2021/06/09 07:15:04;;;;;;;56.97;40.63;;;21.50;47.40;;;;;;5011890;28;20389;-73
2021/06/09 07:17:30;;;;;;;58.92;38.38;;;21.50;45.10;;;;;;5012162;28;20435;-71
2021/06/09 07:19:56;;;;;;;52.95;38.75;;;21.50;46.30;;;;;;5012299;28;20866;-73
2021/06/09 07:22:21;;;;;;;62.72;41.90;;;21.60;45.00;;;;;;5012375;28;20424;-74
2021/06/09 07:24:47;;;;;;;56.10;41.97;;;21.60;43.20;;;;;;5012170;28;20896;-72
2021/06/09 07:27:14;;;;;;;58.35;41.97;;;21.70;41.70;;;;;;5011898;28;20408;-72
2021/06/09 07:29:41;;;;;;;66.47;42.63;;;21.80;41.50;;;;;;5011944;28;20848;-71
2021/06/09 07:32:07;;;;;;;59.37;40.07;;;22.00;39.10;;;;;;4994077;28;20823;-71
2021/06/09 07:34:33;;;;;;;54.08;39.13;;;22.40;38.20;;;;;;4991978;28;20383;-71
2021/06/09 07:37:01;;;;;;;59.10;40.10;;;22.60;37.90;;;;;;4996466;28;20388;-71
2021/06/09 07:39:32;;;;;;;60.33;38.25;;;22.70;36.00;;;;;;5011563;28;20393;-71
2021/06/09 07:42:00;;;;;;;56.85;40.15;;;22.70;35.60;;;;;;5011494;28;20763;-72
2021/06/09 07:44:32;;;;;;;56.42;39.28;;;22.80;35.30;;;;;;5011400;28;20483;-71
2021/06/09 07:46:59;;;;;;;60.55;40.65;;;22.80;35.70;;;;;;5011033;28;20389;-71
2021/06/09 07:49:26;;;;;;;58.97;41.10;;;22.80;34.30;;;;;;5011938;28;20424;-72
2021/06/09 07:51:53;;;;;;;57.50;38.75;;;22.60;35.00;;;;;;5011733;28;21148;-72
2021/06/09 07:54:20;;;;;;;56.97;38.50;;;22.70;35.10;;;;;;5012448;28;20399;-71
2021/06/09 07:56:46;;;;;;;55.13;38.25;;;23.00;33.80;;;;;;5012723;28;20389;-71
2021/06/09 07:59:13;;;;;;;57.80;37.77;;;23.00;33.60;;;;;;5011828;28;20433;-71
2021/06/09 08:01:42;;;;;;;58.22;39.05;;;23.00;33.90;;;;;;5011308;28;20431;-71
2021/06/09 08:04:09;;;;;;;58.45;39.75;;;22.90;34.80;;;;;;5011127;28;20392;-71
2021/06/09 08:06:35;;;;;;;55.25;37.30;;;22.80;34.90;;;;;;5011510;28;20447;-71
2021/06/09 08:09:00;;;;;;;54.30;36.75;;;22.90;34.60;;;;;;5011176;28;20639;-71
2021/06/09 08:11:26;;;;;;;48.67;34.93;;;23.10;34.50;;;;;;5007532;28;20566;-71
2021/06/09 08:13:53;;;;;;;45.90;32.80;;;23.20;33.70;;;;;;5011512;28;20944;-71
2021/06/09 08:16:20;;;;;;;51.97;35.42;;;23.40;32.10;;;;;;5012445;28;20443;-72
2021/06/09 08:18:46;;;;;;;53.97;37.10;;;23.10;33.20;;;;;;5011510;28;20389;-71
2021/06/09 08:21:17;;;;;;;56.20;36.10;;;23.00;32.80;;;;;;5002397;28;20971;-71
2021/06/09 08:23:48;;;;;;;47.00;33.92;;;23.10;33.30;;;;;;4991595;28;20383;-72
2021/06/09 08:26:15;;;;;;;50.05;34.95;;;23.00;33.20;;;;;;4991289;28;20410;-71
2021/06/09 08:28:43;;;;;;;52.35;34.22;;;23.00;33.50;;;;;;4991456;28;20946;-73
2021/06/09 08:31:13;;;;;;;48.67;32.00;;;23.10;32.90;;;;;;4998847;28;20393;-73
2021/06/09 08:33:41;;;;;;;48.70;33.35;;;23.10;33.10;;;;;;5009959;28;21237;-72
2021/06/09 08:36:08;;;;;;;50.38;35.40;;;23.10;32.30;;;;;;5011144;28;20389;-72
2021/06/09 08:38:35;;;;;;;47.13;33.87;;;23.20;31.80;;;;;;4994144;28;20387;-71
2021/06/09 08:41:02;;;;;;;48.05;32.53;;;23.40;31.10;;;;;;4998616;28;20451;-71
2021/06/09 08:43:28;;;;;;;45.22;32.80;;;23.70;30.60;;;;;;4989837;28;20407;-72
2021/06/09 08:45:54;;;;;;;39.88;30.10;;;23.80;29.90;;;;;;4995340;28;20401;-74
2021/06/09 08:48:21;;;;;;;43.13;29.58;;;23.90;29.40;;;;;;5018599;22;20446;-75
2021/06/09 08:50:48;;;;;;;41.78;29.58;;;24.30;29.00;;;;;;5000025;28;20405;-78
2021/06/09 08:53:20;;;;;;;44.90;29.13;;;24.10;28.40;;;;;;4992068;28;20418;-74
2021/06/09 08:55:47;;;;;;;41.53;28.83;;;23.80;29.10;;;;;;4993849;28;20481;-76
2021/06/09 08:58:14;;;;;;;44.43;29.70;;;23.70;29.50;;;;;;4987125;28;20388;-73
2021/06/09 09:00:42;;;;;;;41.47;30.92;;;23.70;30.30;;;;;;4972016;28;20405;-74
2021/06/09 09:03:08;;;;;;;50.63;33.00;;;23.80;29.20;;;;;;4972334;28;20494;-74
2021/06/09 09:05:35;;;;;;;41.10;27.55;;;23.80;29.70;;;;;;4971258;28;20511;-73
2021/06/09 09:08:05;;;;;;;40.00;28.65;;;23.90;29.20;;;;;;4974059;28;20395;-74
2021/06/09 09:10:31;;;;;;;39.53;26.80;;;23.90;28.10;;;;;;4974383;28;20407;-75
2021/06/09 09:12:58;;;;;;;33.17;25.02;;;23.70;28.00;;;;;;4961901;28;20796;-75
2021/06/09 09:15:23;;;;;;;31.77;22.48;;;23.60;26.80;;;;;;4972744;28;20411;-75
2021/06/09 09:17:56;;;;;;;28.37;20.27;;;23.80;26.20;;;;;;4972626;28;20392;-74
2021/06/09 09:20:34;;;;;;;32.60;22.88;;;23.80;25.20;;;;;;4965158;28;20458;-75
2021/06/09 09:23:28;;;;;;;33.33;24.70;;;23.90;24.20;;;;;;4972665;28;20821;-74
2021/06/09 09:25:56;;;;;;;35.63;24.40;;;24.20;25.40;;;;;;4986995;28;20403;-75
2021/06/09 09:28:21;;;;;;;34.63;24.80;;;24.70;25.40;;;;;;4972332;28;20447;-74
2021/06/09 09:30:47;;;;;;;30.30;23.20;;;25.10;22.70;;;;;;4972362;28;20392;-76
2021/06/09 09:33:19;;;;;;;33.08;24.48;;;25.10;22.60;;;;;;4972035;28;20404;-75
2021/06/09 09:35:46;;;;;;;35.67;24.30;;;24.80;23.70;;;;;;4972415;28;20466;-76
2021/06/09 09:38:14;;;;;;;36.22;24.52;;;24.30;22.60;;;;;;4971661;28;20408;-76
2021/06/09 09:41:18;;;;;;;42.80;30.55;;;24.10;24.70;;;;;;4972449;28;20458;-76
2021/06/09 09:43:47;;;;;;;44.25;32.00;;;24.00;24.70;;;;;;4971415;28;20404;-75
2021/06/09 09:46:18;;;;;;;42.80;31.00;;;24.00;23.20;;;;;;4973315;28;20435;-76
2021/06/09 09:49:07;;;;;;;40.63;30.67;;;24.20;24.70;;;;;;4970935;28;20576;-75
2021/06/09 09:51:37;;;;;;;42.47;30.60;;;24.50;23.40;;;;;;4971316;28;20439;-76
2021/06/09 09:54:06;;;;;;;40.85;29.92;;;24.70;23.20;;;;;;4973386;28;20400;-76
2021/06/09 09:56:35;;;;;;;41.67;30.15;;;24.80;21.40;;;;;;4972906;28;20427;-75
2021/06/09 09:59:09;;;;;;;38.95;28.55;;;25.20;21.00;;;;;;4972638;28;20392;-75
2021/06/09 10:01:45;;;;;;;45.03;30.75;;;25.60;20.30;;;;;;4973654;28;20438;-75
2021/06/09 10:04:20;;;;;;;39.65;29.42;;;24.80;20.50;;;;;;4987608;28;20415;-75
2021/06/09 10:06:48;;;;;;;41.83;29.30;;;24.90;20.70;;;;;;4972769;28;20384;-75
2021/06/09 10:09:16;;;;;;;42.85;30.27;;;25.20;20.70;;;;;;4959997;28;20413;-75
2021/06/09 10:11:44;;;;;;;38.57;30.20;;;25.20;20.00;;;;;;4968139;28;20408;-74
2021/06/09 10:14:14;;;;;;;41.00;29.27;;;25.20;20.60;;;;;;4975074;28;20752;-75
2021/06/09 10:16:43;;;;;;;39.83;30.80;;;25.30;21.10;;;;;;4975187;28;20392;-74
2021/06/09 10:19:14;;;;;;;42.10;30.98;;;25.30;21.10;;;;;;4975033;28;20397;-76
2021/06/09 10:21:45;;;;;;;39.33;31.02;;;25.40;20.10;;;;;;4975345;28;20883;-75
2021/06/09 10:24:11;;;;;;;40.20;31.75;;;25.40;19.70;;;;;;4975490;28;20384;-75
2021/06/09 10:26:39;;;;;;;43.28;32.78;;;25.80;18.70;;;;;;4990711;28;20395;-74
2021/06/09 10:29:18;;;;;;;48.20;37.90;;;26.40;19.20;;;;;;4975379;28;20396;-75
2021/06/09 10:31:47;;;;;;;46.05;34.90;;;26.50;19.30;;;;;;4975883;28;20419;-75
2021/06/09 10:34:12;;;;;;;49.13;36.25;;;26.50;19.40;;;;;;4974561;28;20388;-73
2021/06/09 10:36:48;;;;;;;55.20;36.53;;;26.30;19.20;;;;;;4989084;28;20404;-73
2021/06/09 10:39:15;;;;;;;47.08;35.03;;;25.90;20.00;;;;;;4974342;28;20417;-75
2021/06/09 10:41:46;;;;;;;48.53;37.58;;;25.40;21.80;;;;;;4974892;28;20392;-74
2021/06/09 10:44:17;;;;;;;49.28;37.05;;;25.00;23.60;;;;;;4972693;28;20487;-75
2021/06/09 10:46:46;;;;;;;48.13;36.38;;;25.00;23.30;;;;;;4973654;28;20431;-75
2021/06/09 10:49:20;;;;;;;45.65;35.80;;;25.00;22.30;;;;;;4973781;28;20895;-75
2021/06/09 10:51:48;;;;;;;48.33;36.10;;;25.00;22.40;;;;;;4974018;28;20927;-74
2021/06/09 10:54:15;;;;;;;53.58;40.85;;;25.20;21.80;;;;;;4974287;28;20395;-74
2021/06/09 10:56:44;;;;;;;44.28;33.97;;;25.40;20.60;;;;;;4988751;28;20396;-73
2021/06/09 10:59:12;;;;;;;42.47;34.47;;;26.00;21.20;;;;;;4974340;28;20400;-73
2021/06/09 11:01:39;;;;;;;38.13;30.92;;;26.20;18.70;;;;;;4974411;28;20900;-74
2021/06/09 11:04:05;;;;;;;36.30;30.63;;;26.30;18.30;;;;;;4973826;28;20392;-74
2021/06/09 11:06:38;;;;;;;37.30;31.33;;;26.50;18.70;;;;;;4973659;28;20439;-75
2021/06/09 11:09:22;;;;;;;40.65;31.42;;;26.50;17.70;;;;;;4988747;28;20427;-76
2021/06/09 11:12:13;;;;;;;37.72;30.98;;;26.20;18.20;;;;;;4964175;28;20418;-74
2021/06/09 11:14:59;;;;;;;38.22;30.05;;;25.00;18.60;;;;;;4954583;28;20405;-74
2021/06/09 11:17:47;;;;;;;37.47;29.17;;;25.40;19.60;;;;;;4965219;28;20924;-75
2021/06/09 11:20:31;;;;;;;36.25;28.35;;;25.60;19.80;;;;;;4987884;28;20418;-75
2021/06/09 11:23:11;;;;;;;36.97;28.42;;;25.80;18.50;;;;;;4973656;28;20402;-76
2021/06/09 11:25:38;;;;;;;35.63;29.00;;;26.20;17.90;;;;;;4973121;28;20723;-76
2021/06/09 11:28:26;;;;;;;39.25;28.52;;;26.20;17.70;;;;;;4973187;28;20400;-75
2021/06/09 11:30:53;;;;;;;30.58;26.13;;;26.40;17.80;;;;;;4971906;28;20428;-75
2021/06/09 11:33:44;;;;;;;32.35;25.95;;;26.80;17.10;;;;;;4972659;28;20415;-76
2021/06/09 11:36:29;;;;;;;31.98;24.90;;;27.00;16.80;;;;;;4972970;28;20423;-74
2021/06/09 11:38:56;;;;;;;32.95;25.15;;;27.00;16.50;;;;;;4955447;28;20406;-76
2021/06/09 11:41:26;;;;;;;31.47;24.03;;;26.40;17.20;;;;;;4972588;28;20527;-73
2021/06/09 11:43:55;;;;;;;28.98;24.15;;;26.20;17.70;;;;;;4970550;28;20502;-74
2021/06/09 11:46:25;;;;;;;34.97;25.70;;;26.00;17.30;;;;;;4972511;28;20415;-74
2021/06/09 11:48:59;;;;;;;33.03;24.35;;;26.00;16.40;;;;;;4972557;28;20889;-74
2021/06/09 11:51:33;;;;;;;34.42;24.17;;;26.30;16.10;;;;;;4970129;28;20423;-75
2021/06/09 11:54:05;;;;;;;32.85;24.05;;;26.20;15.30;;;;;;4972058;28;20392;-75
2021/06/09 11:56:38;;;;;;;29.30;21.42;;;26.50;14.00;;;;;;4972683;28;20402;-76
2021/06/09 11:59:20;;;;;;;28.25;20.08;;;26.80;12.60;;;;;;4972816;28;20384;-75
2021/06/09 12:01:46;;;;;;;23.00;18.10;;;27.10;13.40;;;;;;4972874;28;20392;-74
2021/06/09 12:04:21;;;;;;;26.20;19.10;;;27.20;10.30;;;;;;4972536;28;20726;-75
2021/06/09 12:06:56;;;;;;;20.10;16.30;;;27.40;10.40;;;;;;4987314;28;20482;-75
2021/06/09 12:09:22;;;;;;;25.98;19.02;;;28.10;11.80;;;;;;4960182;28;20402;-74
2021/06/09 12:11:51;;;;;;;26.20;21.35;;;27.80;11.10;;;;;;4963119;28;20817;-75
2021/06/09 12:14:26;;;;;;;24.60;20.00;;;27.70;12.70;;;;;;4972391;28;20395;-74
2021/06/09 12:17:12;;;;;;;24.48;19.67;;;27.50;13.80;;;;;;4953432;28;20394;-77
2021/06/09 12:19:40;;;;;;;23.95;20.42;;;27.20;13.10;;;;;;4951874;28;20855;-75
2021/06/09 12:22:28;;;;;;;26.23;21.35;;;26.90;13.60;;;;;;4969705;28;20414;-76
2021/06/09 12:25:02;;;;;;;26.50;21.17;;;26.60;14.40;;;;;;4971816;28;20467;-74
2021/06/09 12:27:28;;;;;;;22.88;19.48;;;26.60;15.10;;;;;;4972373;28;20396;-73
2021/06/09 12:29:54;;;;;;;24.60;19.85;;;26.60;12.50;;;;;;4972313;28;20880;-74
2021/06/09 12:32:29;;;;;;;20.00;17.77;;;26.70;13.00;;;;;;4971894;28;20456;-76
2021/06/09 12:35:06;;;;;;;21.60;17.90;;;27.20;12.50;;;;;;4971617;28;20481;-77
2021/06/09 12:37:35;;;;;;;25.67;21.17;;;27.60;11.80;;;;;;4972361;28;20396;-76
2021/06/09 12:40:23;;;;;;;20.53;18.00;;;27.90;11.40;;;;;;4973894;28;20403;-77
2021/06/09 12:42:50;;;;;;;22.10;18.55;;;28.30;11.30;;;;;;4974406;28;20993;-75
2021/06/09 12:45:18;;;;;;;20.42;16.70;;;28.70;10.90;;;;;;4972583;28;20411;-76